createdAt,value
2018-07-24T00:02:25.724Z,7.60
2018-07-24T00:04:53.957Z,8.27
2018-07-24T00:07:22.145Z,7.47
2018-07-24T00:09:50.894Z,9.10
2018-07-24T00:12:19.113Z,8.37
2018-07-24T00:14:47.959Z,8.63
2018-07-24T00:17:16.171Z,8.53
2018-07-24T00:19:44.969Z,7.70
2018-07-24T00:22:13.509Z,8.20
2018-07-24T00:24:41.990Z,8.35
2018-07-24T00:27:10.293Z,8.53
2018-07-24T00:29:38.601Z,8.33
2018-07-24T00:32:06.823Z,8.13
2018-07-24T00:34:35.292Z,8.55
2018-07-24T00:37:03.759Z,8.30
2018-07-24T00:39:32.056Z,9.63
2018-07-24T00:42:00.625Z,8.93
2018-07-24T00:44:29.029Z,10.40
2018-07-24T00:46:57.255Z,8.60
2018-07-24T00:49:25.450Z,8.67
2018-07-24T00:51:53.910Z,8.30
2018-07-24T00:54:22.163Z,9.10
2018-07-24T00:56:50.678Z,8.50
2018-07-24T00:59:18.874Z,8.30
2018-07-24T01:01:47.721Z,8.93
2018-07-24T01:04:16.238Z,8.13
2018-07-24T01:06:45.070Z,8.20
2018-07-24T01:09:13.636Z,9.73
2018-07-24T01:11:42.141Z,10.23
2018-07-24T01:14:10.965Z,8.70
2018-07-24T01:16:39.195Z,8.95
2018-07-24T01:19:07.734Z,8.63
2018-07-24T01:21:36.549Z,9.33
2018-07-24T01:24:04.859Z,7.90
2018-07-24T01:26:33.509Z,7.70
2018-07-24T01:29:01.865Z,8.33
2018-07-24T01:31:31.475Z,8.53
2018-07-24T01:34:00.196Z,10.10
2018-07-24T01:36:28.423Z,8.90
2018-07-24T01:38:56.622Z,10.07
2018-07-24T01:41:25.035Z,9.77
2018-07-24T01:43:53.222Z,9.07
2018-07-24T01:46:21.749Z,9.07
2018-07-24T01:48:50.126Z,8.93
2018-07-24T01:51:18.671Z,12.53
2018-07-24T01:53:47.159Z,10.50
2018-07-24T01:56:15.372Z,11.07
2018-07-24T01:58:44.132Z,8.98
2018-07-24T02:01:12.894Z,9.63
2018-07-24T02:03:41.333Z,10.00
2018-07-24T02:06:09.538Z,10.50
2018-07-24T02:08:37.745Z,10.37
2018-07-24T02:11:06.806Z,10.58
2018-07-24T02:13:35.469Z,9.80
2018-07-24T02:16:03.957Z,10.67
2018-07-24T02:18:32.487Z,11.20
2018-07-24T02:21:01.291Z,10.50
2018-07-24T02:23:29.518Z,11.03
2018-07-24T02:25:58.050Z,10.37
2018-07-24T02:28:26.500Z,10.63
2018-07-24T02:30:54.944Z,12.40
2018-07-24T02:33:23.425Z,11.57
2018-07-24T02:35:52.265Z,11.07
2018-07-24T02:38:20.473Z,11.27
2018-07-24T02:40:49.007Z,11.03
2018-07-24T02:43:17.239Z,10.80
2018-07-24T02:45:45.734Z,11.03
2018-07-24T02:48:14.153Z,10.37
2018-07-24T02:50:42.818Z,10.20
2018-07-24T02:53:11.396Z,10.30
2018-07-24T02:55:39.596Z,11.10
2018-07-24T02:58:08.342Z,11.80
2018-07-24T03:00:37.090Z,12.05
2018-07-24T03:03:05.490Z,11.87
2018-07-24T03:05:33.690Z,11.57
2018-07-24T03:08:02.098Z,12.53
2018-07-24T03:10:31.399Z,13.60
2018-07-24T03:12:59.629Z,12.70
2018-07-24T03:15:35.199Z,12.50
2018-07-24T03:18:03.731Z,13.30
2018-07-24T03:20:32.561Z,12.80
2018-07-24T03:23:03.660Z,12.40
2018-07-24T03:25:32.460Z,12.10
2018-07-24T03:28:00.695Z,12.53
2018-07-24T03:30:30.097Z,12.15
2018-07-24T03:32:58.294Z,12.17
2018-07-24T03:35:26.891Z,11.77
2018-07-24T03:37:55.112Z,12.63
2018-07-24T03:40:23.306Z,13.30
2018-07-24T03:42:51.972Z,12.60
2018-07-24T03:45:20.704Z,13.27
2018-07-24T03:47:49.547Z,12.37
2018-07-24T03:50:17.748Z,12.50
2018-07-24T03:52:46.601Z,13.50
2018-07-24T03:55:15.093Z,12.40
2018-07-24T03:57:44.035Z,12.37
2018-07-24T04:00:12.810Z,13.70
2018-07-24T04:02:41.256Z,12.77
2018-07-24T04:05:09.473Z,13.33
2018-07-24T04:07:37.699Z,12.40
2018-07-24T04:10:06.746Z,13.80
2018-07-24T04:12:35.453Z,15.13
2018-07-24T04:15:03.679Z,15.13
2018-07-24T04:17:32.214Z,15.43
2018-07-24T04:20:00.428Z,16.47
2018-07-24T04:22:28.646Z,16.97
2018-07-24T04:24:57.389Z,16.30
2018-07-24T04:27:25.590Z,15.87
2018-07-24T04:29:53.805Z,16.13
2018-07-24T04:32:22.331Z,15.53
2018-07-24T04:34:50.563Z,14.93
2018-07-24T04:37:18.790Z,14.40
2018-07-24T04:39:47.954Z,14.65
2018-07-24T04:42:16.442Z,16.73
2018-07-24T04:44:44.659Z,14.50
2018-07-24T04:47:13.192Z,16.77
2018-07-24T04:49:41.726Z,15.73
2018-07-24T04:52:10.434Z,15.80
2018-07-24T04:54:40.008Z,15.50
2018-07-24T04:57:08.867Z,16.90
2018-07-24T04:59:37.418Z,16.20
2018-07-24T05:02:06.251Z,18.70
2018-07-24T05:04:34.488Z,15.20
2018-07-24T05:07:02.720Z,15.80
2018-07-24T05:09:31.748Z,15.05
2018-07-24T05:12:00.443Z,16.23
2018-07-24T05:14:29.041Z,14.20
2018-07-24T05:16:57.350Z,15.67
2018-07-24T05:19:25.690Z,14.87
2018-07-24T05:21:54.165Z,14.60
2018-07-24T05:24:22.453Z,14.97
2018-07-24T05:26:50.712Z,15.13
2018-07-24T05:29:18.938Z,14.50
2018-07-24T05:31:47.694Z,15.00
2018-07-24T05:34:15.935Z,15.33
2018-07-24T05:36:44.820Z,14.20
2018-07-24T05:39:13.427Z,14.83
2018-07-24T05:41:42.433Z,17.80
2018-07-24T05:44:11.073Z,15.60
2018-07-24T05:46:39.665Z,14.10
2018-07-24T05:49:08.350Z,13.57
2018-07-24T05:51:36.959Z,14.43
2018-07-24T05:54:05.351Z,12.40
2018-07-24T05:56:33.693Z,15.53
2018-07-24T05:59:02.564Z,15.70
2018-07-24T06:01:31.823Z,13.30
2018-07-24T06:04:00.281Z,13.33
2018-07-24T06:06:28.740Z,13.57
2018-07-24T06:08:56.869Z,13.13
2018-07-24T06:11:24.983Z,11.53
2018-07-24T06:13:53.088Z,11.77
2018-07-24T06:16:21.508Z,10.80
2018-07-24T06:18:50.131Z,9.90
2018-07-24T06:21:18.429Z,9.90
2018-07-24T06:23:46.821Z,10.90
2018-07-24T06:26:15.371Z,9.97
2018-07-24T06:28:43.696Z,9.47
2018-07-24T06:31:12.358Z,9.47
2018-07-24T06:33:40.927Z,9.60
2018-07-24T06:36:09.048Z,8.77
2018-07-24T06:38:38.184Z,9.33
2018-07-24T06:41:06.613Z,9.13
2018-07-24T06:43:35.259Z,8.50
2018-07-24T06:46:03.920Z,7.90
2018-07-24T06:48:32.316Z,8.93
2018-07-24T06:51:00.644Z,8.33
2018-07-24T06:53:28.888Z,7.67
2018-07-24T06:55:57.168Z,8.17
2018-07-24T06:58:25.604Z,7.90
2018-07-24T07:00:53.704Z,7.27
2018-07-24T07:03:22.206Z,7.50
2018-07-24T07:05:50.628Z,7.87
2018-07-24T07:08:19.242Z,8.53
2018-07-24T07:10:48.264Z,7.37
2018-07-24T07:13:16.961Z,8.43
2018-07-24T07:15:45.283Z,7.77
2018-07-24T07:18:13.701Z,7.43
2018-07-24T07:20:41.982Z,6.85
2018-07-24T07:23:10.864Z,6.70
2018-07-24T07:25:39.295Z,6.93
2018-07-24T07:28:07.736Z,9.23
2018-07-24T07:30:36.248Z,6.63
2018-07-24T07:33:05.579Z,7.50
2018-07-24T07:35:34.296Z,6.43
2018-07-24T07:38:02.412Z,6.23
2018-07-24T07:40:32.060Z,7.23
2018-07-24T07:43:00.164Z,6.33
2018-07-24T07:45:28.494Z,6.27
2018-07-24T07:47:56.824Z,6.40
2018-07-24T07:50:24.921Z,6.50
2018-07-24T07:52:53.364Z,6.73
2018-07-24T07:55:22.105Z,6.20
2018-07-24T07:57:50.560Z,6.00
2018-07-24T08:00:19.069Z,5.87
2018-07-24T08:02:47.446Z,5.00
2018-07-24T08:05:16.382Z,6.58
2018-07-24T08:07:44.496Z,5.40
2018-07-24T08:10:12.796Z,6.07
2018-07-24T08:12:41.541Z,4.80
2018-07-24T08:15:09.720Z,5.83
2018-07-24T08:17:38.324Z,5.40
2018-07-24T08:20:06.411Z,5.00
2018-07-24T08:22:35.151Z,4.90
2018-07-24T08:25:03.251Z,6.20
2018-07-24T08:27:32.217Z,5.90
2018-07-24T08:30:00.887Z,4.90
2018-07-24T08:32:28.983Z,5.13
2018-07-24T08:35:04.064Z,5.30
2018-07-24T08:37:32.693Z,5.87
2018-07-24T08:40:01.228Z,7.57
2018-07-24T08:42:29.356Z,5.83
2018-07-24T08:44:57.667Z,4.50
2018-07-24T08:47:26.355Z,4.77
2018-07-24T08:49:54.473Z,4.63
2018-07-24T08:52:23.111Z,5.10
2018-07-24T08:54:52.038Z,5.60
2018-07-24T08:57:20.096Z,4.90
2018-07-24T08:59:48.398Z,5.53
2018-07-24T09:02:16.833Z,4.73
2018-07-24T09:04:45.176Z,4.20
2018-07-24T09:07:13.612Z,4.77
2018-07-24T09:09:42.317Z,5.20
2018-07-24T09:12:10.708Z,6.33
2018-07-24T09:14:39.483Z,4.90
2018-07-24T09:17:07.635Z,5.33
2018-07-24T09:19:36.034Z,4.60
2018-07-24T09:22:04.676Z,5.30
2018-07-24T09:24:33.391Z,4.57
2018-07-24T09:27:01.577Z,4.40
2018-07-24T09:29:30.060Z,4.80
2018-07-24T09:31:58.354Z,4.53
2018-07-24T09:34:26.997Z,4.50
2018-07-24T09:36:55.252Z,4.00
2018-07-24T09:39:23.700Z,4.10
2018-07-24T09:41:52.133Z,4.57
2018-07-24T09:44:20.593Z,4.67
2018-07-24T09:46:48.681Z,4.27
2018-07-24T09:49:16.768Z,5.10
2018-07-24T09:51:45.444Z,5.55
2018-07-24T09:54:13.615Z,5.17
2018-07-24T09:56:42.040Z,4.73
2018-07-24T09:59:10.257Z,4.63
2018-07-24T10:01:38.556Z,4.40
2018-07-24T10:04:06.680Z,5.57
2018-07-24T10:06:35.753Z,5.17
2018-07-24T10:09:06.161Z,4.37
2018-07-24T10:11:35.093Z,4.20
2018-07-24T10:14:03.656Z,4.53
2018-07-24T10:16:32.952Z,4.78
2018-07-24T10:19:01.926Z,4.10
2018-07-24T10:21:30.340Z,3.97
2018-07-24T10:23:58.781Z,4.40
2018-07-24T10:26:29.559Z,3.92
2018-07-24T10:28:57.671Z,3.70
2018-07-24T10:31:25.784Z,4.40
2018-07-24T10:33:54.232Z,4.50
2018-07-24T10:36:22.685Z,4.27
2018-07-24T10:38:51.312Z,4.60
2018-07-24T10:44:13.003Z,4.40
2018-07-24T10:46:41.548Z,4.20
2018-07-24T10:49:10.107Z,4.27
2018-07-24T10:51:38.940Z,4.58
2018-07-24T10:54:07.624Z,4.30
2018-07-24T10:56:35.948Z,4.03
2018-07-24T10:59:05.097Z,4.25
2018-07-24T11:01:33.499Z,3.90
2018-07-24T11:06:54.902Z,4.37
2018-07-24T11:09:23.860Z,4.80
2018-07-24T11:11:52.768Z,7.22
2018-07-24T11:14:20.943Z,3.80
2018-07-24T11:16:49.033Z,4.50
2018-07-24T11:19:17.405Z,4.20
2018-07-24T11:21:45.843Z,3.72
2018-07-24T11:24:14.337Z,3.80
2018-07-24T11:26:42.748Z,3.60
2018-07-24T11:29:11.191Z,3.77
2018-07-24T11:31:39.567Z,4.20
2018-07-24T11:34:07.702Z,4.07
2018-07-24T11:36:35.976Z,4.20
2018-07-24T11:39:07.338Z,4.53
2018-07-24T11:41:35.955Z,4.00
2018-07-24T11:44:04.481Z,4.30
2018-07-24T11:46:33.159Z,4.33
2018-07-24T11:49:01.815Z,4.00
2018-07-24T11:51:30.296Z,4.20
2018-07-24T11:53:58.810Z,4.50
2018-07-24T11:56:27.476Z,4.20
2018-07-24T11:58:55.585Z,4.80
2018-07-24T12:01:24.472Z,4.17
2018-07-24T12:03:52.596Z,4.40
2018-07-24T12:06:21.060Z,4.03
2018-07-24T12:08:50.079Z,4.95
2018-07-24T12:11:18.588Z,4.33
2018-07-24T12:13:47.056Z,4.30
2018-07-24T12:16:15.724Z,3.77
2018-07-24T12:18:44.569Z,3.63
2018-07-24T12:21:12.656Z,3.53
2018-07-24T12:23:41.177Z,4.35
2018-07-24T12:26:09.932Z,4.43
2018-07-24T12:28:38.667Z,3.60
2018-07-24T12:31:06.867Z,4.50
2018-07-24T12:33:43.716Z,4.03
2018-07-24T12:36:12.016Z,3.40
2018-07-24T12:38:40.315Z,3.83
2018-07-24T12:41:09.222Z,3.67
2018-07-24T12:43:37.893Z,4.00
2018-07-24T12:46:06.331Z,3.67
2018-07-24T12:48:34.725Z,4.00
2018-07-24T12:51:03.105Z,4.43
2018-07-24T13:06:27.405Z,4.20
2018-07-24T13:08:55.676Z,3.90
2018-07-24T13:11:23.881Z,3.83
2018-07-24T13:13:52.314Z,7.90
2018-07-24T13:16:20.625Z,4.00
2018-07-24T13:18:48.931Z,3.80
2018-07-24T13:21:17.399Z,4.07
2018-07-24T13:26:39.204Z,3.72
2018-07-24T13:29:07.312Z,5.83
2018-07-24T13:31:35.702Z,3.40
2018-07-24T13:34:04.662Z,3.53
2018-07-24T13:36:33.561Z,4.60
2018-07-24T13:39:02.092Z,4.50
2018-07-24T13:41:30.342Z,3.40
2018-07-24T13:46:51.268Z,5.97
2018-07-24T13:49:20.460Z,3.83
2018-07-24T13:51:49.180Z,3.45
2018-07-24T13:57:09.784Z,3.60
2018-07-24T13:59:38.960Z,3.50
2018-07-24T14:02:07.513Z,3.60
2018-07-24T14:04:36.254Z,3.60
2018-07-24T14:07:05.404Z,3.57
2018-07-24T14:12:27.215Z,3.47
2018-07-24T14:14:55.648Z,3.80
2018-07-24T14:17:27.326Z,4.20
2018-07-24T14:19:55.818Z,3.53
2018-07-24T14:22:24.331Z,4.03
2018-07-24T14:24:52.773Z,3.67
2018-07-24T14:27:21.157Z,3.93
2018-07-24T14:29:49.585Z,3.97
2018-07-24T14:32:18.198Z,3.23
2018-07-24T14:34:46.663Z,3.60
2018-07-24T14:37:15.137Z,3.60
2018-07-24T14:39:53.101Z,3.80
2018-07-24T14:42:21.446Z,3.70
2018-07-24T14:44:50.515Z,3.50
2018-07-24T14:47:18.909Z,3.87
2018-07-24T14:49:47.303Z,3.53
2018-07-24T14:52:15.383Z,3.63
2018-07-24T14:54:44.011Z,3.50
2018-07-24T14:57:12.542Z,3.70
2018-07-24T14:59:41.467Z,3.35
2018-07-24T15:02:10.273Z,3.30
2018-07-24T15:04:38.949Z,4.03
2018-07-24T15:07:07.577Z,3.43
2018-07-24T15:09:56.484Z,3.60
2018-07-24T15:12:24.701Z,3.07
2018-07-24T15:14:53.241Z,3.40
2018-07-24T15:17:21.366Z,3.53
2018-07-24T15:19:50.048Z,3.63
2018-07-24T15:22:18.160Z,3.30
2018-07-24T15:24:46.881Z,4.10
2018-07-24T15:27:15.363Z,3.00
2018-07-24T15:29:43.654Z,3.70
2018-07-24T15:32:12.087Z,4.13
2018-07-24T15:34:40.567Z,3.30
2018-07-24T15:37:09.188Z,3.90
2018-07-24T15:39:37.572Z,3.42
2018-07-24T15:42:06.076Z,3.40
2018-07-24T15:44:34.729Z,5.67
2018-07-24T15:47:03.377Z,3.70
2018-07-24T15:49:33.656Z,3.87
2018-07-24T15:52:02.402Z,3.73
2018-07-24T15:54:30.991Z,4.80
2018-07-24T15:56:59.141Z,6.40
2018-07-24T15:59:34.340Z,3.90
2018-07-24T16:02:02.469Z,3.70
2018-07-24T16:04:30.899Z,4.83
2018-07-24T16:06:59.400Z,3.83
2018-07-24T16:09:27.509Z,4.20
2018-07-24T16:11:55.624Z,6.37
2018-07-24T16:14:24.051Z,4.10
2018-07-24T16:16:52.800Z,3.87
2018-07-24T16:19:21.387Z,3.80
2018-07-24T16:21:49.832Z,4.47
2018-07-24T16:24:18.572Z,4.30
2018-07-24T16:26:47.256Z,4.07
2018-07-24T16:29:15.373Z,4.43
2018-07-24T16:31:44.244Z,4.10
2018-07-24T16:34:12.696Z,3.90
2018-07-24T16:36:41.716Z,4.20
2018-07-24T16:39:11.666Z,3.93
2018-07-24T16:41:40.304Z,3.70
2018-07-24T16:44:08.409Z,4.37
2018-07-24T16:46:36.864Z,3.67
2018-07-24T16:49:05.393Z,4.17
2018-07-24T16:51:34.289Z,4.27
2018-07-24T16:54:02.589Z,4.00
2018-07-24T16:56:30.939Z,4.20
2018-07-24T16:58:59.141Z,4.80
2018-07-24T17:01:28.023Z,3.97
2018-07-24T17:03:57.256Z,4.07
2018-07-24T17:06:25.813Z,3.80
2018-07-24T17:08:54.167Z,3.70
2018-07-24T17:11:22.720Z,4.17
2018-07-24T17:13:50.834Z,4.22
2018-07-24T17:16:19.440Z,6.20
2018-07-24T17:18:47.532Z,3.93
2018-07-24T17:21:15.871Z,4.03
2018-07-24T17:23:44.271Z,3.98
2018-07-24T17:26:12.669Z,3.80
2018-07-24T17:28:41.314Z,3.63
2018-07-24T17:31:09.827Z,4.10
2018-07-24T17:33:38.555Z,4.10
2018-07-24T17:36:06.650Z,3.67
2018-07-24T17:38:35.356Z,4.27
2018-07-24T17:41:03.817Z,4.00
2018-07-24T17:43:31.940Z,4.07
2018-07-24T17:46:00.360Z,3.70
2018-07-24T17:48:28.963Z,4.00
2018-07-24T17:50:57.320Z,4.33
2018-07-24T17:53:25.696Z,5.50
2018-07-24T17:55:53.796Z,4.43
2018-07-24T17:58:25.264Z,4.20
2018-07-24T18:00:53.367Z,3.60
2018-07-24T18:03:21.796Z,3.40
2018-07-24T18:05:50.499Z,3.50
2018-07-24T18:08:18.619Z,3.73
2018-07-24T18:10:46.975Z,3.40
2018-07-24T18:13:15.684Z,4.20
2018-07-24T18:15:43.796Z,3.33
2018-07-24T18:18:12.367Z,3.60
2018-07-24T18:20:40.743Z,3.90
2018-07-24T18:23:09.491Z,3.53
2018-07-24T18:25:38.260Z,4.17
2018-07-24T18:28:06.507Z,3.83
2018-07-24T18:30:34.753Z,3.40
2018-07-24T18:33:03.374Z,4.77
2018-07-24T18:35:31.935Z,8.70
2018-07-24T18:38:01.510Z,3.50
2018-07-24T18:40:30.160Z,3.77
2018-07-24T18:42:58.811Z,3.20
2018-07-24T18:45:27.152Z,3.87
2018-07-24T18:47:55.456Z,6.67
2018-07-24T18:50:23.896Z,4.07
2018-07-24T18:52:52.616Z,5.00
2018-07-24T18:55:21.211Z,3.40
2018-07-24T18:57:49.611Z,5.78
2018-07-24T19:00:18.141Z,3.40
2018-07-24T19:02:47.072Z,3.10
2018-07-24T19:07:41.068Z,3.40
2018-07-24T19:10:09.449Z,4.60
2018-07-24T19:12:37.816Z,3.33
2018-07-24T19:15:06.562Z,3.47
2018-07-24T19:17:35.000Z,3.50
2018-07-24T19:20:03.396Z,3.60
2018-07-24T19:22:31.920Z,3.10
2018-07-24T19:25:00.407Z,4.33
2018-07-24T19:27:28.899Z,3.00
2018-07-24T19:29:57.003Z,5.60
2018-07-24T19:32:25.452Z,5.13
2018-07-24T19:34:54.093Z,3.67
2018-07-24T19:37:23.152Z,7.33
2018-07-24T19:39:51.552Z,3.50
2018-07-24T19:42:19.976Z,3.73
2018-07-24T19:44:48.067Z,25.85
2018-07-24T19:47:16.524Z,68.83
2018-07-24T19:49:45.312Z,11.05
2018-07-24T19:52:13.738Z,5.33
2018-07-24T19:54:42.156Z,5.22
2018-07-24T19:57:10.822Z,5.17
2018-07-24T19:59:39.543Z,5.80
2018-07-24T20:02:08.061Z,4.10
2018-07-24T20:04:37.000Z,4.00
2018-07-24T20:07:05.667Z,4.50
2018-07-24T20:09:34.379Z,5.90
2018-07-24T20:12:02.660Z,4.20
2018-07-24T20:14:31.155Z,4.67
2018-07-24T20:16:59.591Z,6.70
2018-07-24T20:19:28.236Z,3.70
2018-07-24T20:21:56.660Z,3.40
2018-07-24T20:24:24.762Z,3.40
2018-07-24T20:26:53.381Z,5.53
2018-07-24T20:29:22.007Z,4.30
2018-07-24T20:31:51.096Z,4.15
2018-07-24T20:34:19.414Z,3.83
2018-07-24T20:36:48.045Z,3.97
2018-07-24T20:39:16.159Z,4.47
2018-07-24T20:41:44.690Z,3.95
2018-07-24T20:44:13.276Z,4.80
2018-07-24T20:46:42.270Z,3.35
2018-07-24T20:49:10.710Z,4.13
2018-07-24T20:51:39.414Z,4.60
2018-07-24T20:54:08.163Z,4.87
2018-07-24T20:56:36.740Z,3.90
2018-07-24T20:59:05.176Z,4.00
2018-07-24T21:01:34.744Z,4.33
2018-07-24T21:04:02.868Z,5.50
2018-07-24T21:06:30.960Z,5.07
2018-07-24T21:08:59.420Z,4.10
2018-07-24T21:11:27.830Z,4.57
2018-07-24T21:13:55.923Z,4.03
2018-07-24T21:16:24.082Z,4.53
2018-07-24T21:18:52.541Z,4.03
2018-07-24T21:21:21.201Z,4.50
2018-07-24T21:23:49.324Z,4.63
2018-07-24T21:26:17.720Z,4.22
2018-07-24T21:28:46.093Z,4.50
2018-07-24T21:31:14.188Z,4.13
2018-07-24T21:33:43.048Z,4.58
2018-07-24T21:36:11.491Z,4.70
2018-07-24T21:38:40.089Z,3.95
2018-07-24T21:41:08.385Z,4.20
2018-07-24T21:43:36.972Z,9.23
2018-07-24T21:46:05.413Z,4.67
2018-07-24T21:48:34.332Z,7.93
2018-07-24T21:51:02.670Z,4.60
2018-07-24T21:53:30.976Z,4.90
2018-07-24T21:55:59.068Z,4.30
2018-07-24T21:58:27.180Z,4.87
2018-07-24T22:01:01.186Z,4.20
2018-07-24T22:03:29.629Z,4.37
2018-07-24T22:05:57.908Z,4.37
2018-07-24T22:08:26.008Z,4.43
2018-07-24T22:10:54.096Z,5.80
2018-07-24T22:13:22.195Z,4.60
2018-07-24T22:15:50.624Z,5.03
2018-07-24T22:18:19.105Z,5.10
2018-07-24T22:20:47.620Z,5.63
2018-07-24T22:23:16.064Z,5.27
2018-07-24T22:25:44.685Z,5.17
2018-07-24T22:28:13.407Z,4.80
2018-07-24T22:30:41.828Z,7.57
2018-07-24T22:33:10.064Z,4.97
2018-07-24T22:35:38.612Z,4.30
2018-07-24T22:38:07.036Z,6.23
2018-07-24T22:40:35.409Z,4.80
2018-07-24T22:43:03.932Z,4.10
2018-07-24T22:45:32.059Z,5.23
2018-07-24T22:48:00.471Z,4.97
2018-07-24T22:50:28.633Z,6.40
2018-07-24T22:52:57.184Z,5.00
2018-07-24T22:55:25.636Z,5.30
2018-07-24T22:57:53.724Z,5.33
2018-07-24T23:00:22.495Z,4.67
2018-07-24T23:02:51.167Z,7.40
2018-07-24T23:05:19.640Z,5.10
2018-07-24T23:07:48.601Z,5.08
2018-07-24T23:10:17.365Z,5.30
2018-07-24T23:12:45.744Z,5.80
2018-07-24T23:15:14.418Z,4.40
2018-07-24T23:17:43.048Z,5.70
2018-07-24T23:20:11.251Z,5.30
2018-07-24T23:22:39.976Z,4.67
2018-07-24T23:25:08.068Z,5.40
2018-07-24T23:27:36.680Z,4.83
2018-07-24T23:30:04.992Z,4.40
2018-07-24T23:32:34.879Z,4.55
2018-07-24T23:35:03.462Z,5.50
2018-07-24T23:37:32.367Z,5.12
2018-07-24T23:40:00.467Z,5.87
2018-07-24T23:42:28.567Z,5.70
2018-07-24T23:44:57.122Z,5.27
2018-07-24T23:47:25.882Z,5.27
2018-07-24T23:49:54.114Z,5.70
2018-07-24T23:52:22.733Z,5.30
2018-07-24T23:54:51.668Z,5.97
2018-07-24T23:57:19.772Z,5.47
2018-07-24T23:59:48.696Z,7.05
